createdAt,value
2022-10-24T00:00:16.486Z,971.18
2022-10-24T00:01:16.426Z,971.25
2022-10-24T00:02:16.417Z,971.21
2022-10-24T00:03:16.406Z,971.26
2022-10-24T00:04:16.401Z,971.32
2022-10-24T00:05:16.389Z,971.29
2022-10-24T00:06:16.382Z,971.28
2022-10-24T00:07:16.371Z,971.29
2022-10-24T00:08:16.383Z,971.25
2022-10-24T00:09:16.356Z,971.24
2022-10-24T00:10:16.346Z,971.38
2022-10-24T00:11:16.340Z,971.54
2022-10-24T00:12:16.393Z,971.66
2022-10-24T00:13:16.316Z,971.69
2022-10-24T00:14:16.312Z,971.70
2022-10-24T00:15:16.297Z,971.70
2022-10-24T00:16:16.291Z,971.59
2022-10-24T00:17:16.280Z,971.54
2022-10-24T00:18:16.274Z,971.64
2022-10-24T00:19:16.263Z,971.65
2022-10-24T00:20:16.257Z,971.72
2022-10-24T00:21:16.245Z,971.65
2022-10-24T00:22:16.238Z,971.70
2022-10-24T00:23:16.226Z,971.68
2022-10-24T00:24:16.237Z,971.72
2022-10-24T00:25:16.209Z,971.80
2022-10-24T00:26:16.202Z,971.85
2022-10-24T00:27:16.189Z,971.87
2022-10-24T00:28:16.184Z,971.79
2022-10-24T00:29:16.173Z,971.84
2022-10-24T00:30:16.165Z,971.93
2022-10-24T00:31:16.155Z,971.95
2022-10-24T00:32:16.153Z,971.92
2022-10-24T00:33:16.135Z,971.92
2022-10-24T00:34:16.130Z,971.80
2022-10-24T00:35:16.116Z,971.83
2022-10-24T00:36:16.110Z,971.76
2022-10-24T00:37:16.207Z,971.76
2022-10-24T00:38:16.092Z,971.72
2022-10-24T00:39:16.080Z,971.66
2022-10-24T00:40:16.092Z,971.64
2022-10-24T00:41:16.069Z,971.62
2022-10-24T00:42:16.056Z,971.59
2022-10-24T00:43:16.043Z,971.59
2022-10-24T00:44:16.038Z,971.50
2022-10-24T00:45:16.026Z,971.47
2022-10-24T00:46:16.019Z,971.48
2022-10-24T00:47:16.007Z,971.50
2022-10-24T00:48:16.001Z,971.48
2022-10-24T00:49:15.993Z,971.52
2022-10-24T00:50:15.986Z,971.63
2022-10-24T00:51:15.970Z,971.70
2022-10-24T00:52:15.965Z,971.66
2022-10-24T00:53:15.952Z,971.46
2022-10-24T00:54:15.950Z,971.48
2022-10-24T00:55:15.935Z,971.44
2022-10-24T00:56:15.945Z,971.46
2022-10-24T00:57:15.914Z,971.35
2022-10-24T00:58:15.910Z,971.44
2022-10-24T00:59:15.897Z,971.52
2022-10-24T01:00:15.889Z,971.42
2022-10-24T01:01:15.965Z,971.40
2022-10-24T01:02:15.881Z,971.43
2022-10-24T01:03:15.860Z,971.41
2022-10-24T01:04:15.854Z,971.41
2022-10-24T01:05:15.842Z,971.37
2022-10-24T01:06:15.850Z,971.47
2022-10-24T01:07:15.823Z,971.74
2022-10-24T01:08:15.815Z,971.85
2022-10-24T01:09:15.804Z,971.62
2022-10-24T01:10:15.798Z,971.71
2022-10-24T01:11:15.784Z,971.75
2022-10-24T01:12:15.808Z,971.74
2022-10-24T01:13:15.768Z,971.80
2022-10-24T01:14:15.760Z,971.79
2022-10-24T01:15:15.748Z,971.76
2022-10-24T01:16:15.741Z,971.80
2022-10-24T01:17:15.735Z,971.81
2022-10-24T01:18:15.725Z,971.89
2022-10-24T01:19:15.712Z,971.87
2022-10-24T01:20:15.720Z,971.95
2022-10-24T01:21:15.695Z,971.94
2022-10-24T01:22:15.688Z,972.02
2022-10-24T01:23:15.676Z,972.00
2022-10-24T01:24:15.669Z,972.05
2022-10-24T01:25:15.657Z,972.00
2022-10-24T01:26:15.651Z,972.04
2022-10-24T01:27:15.675Z,972.02
2022-10-24T01:28:15.650Z,971.97
2022-10-24T01:29:15.621Z,971.96
2022-10-24T01:30:15.614Z,971.88
2022-10-24T01:31:15.603Z,971.88
2022-10-24T01:32:15.597Z,971.76
2022-10-24T01:33:15.585Z,971.73
2022-10-24T01:34:15.579Z,971.73
2022-10-24T01:35:15.568Z,971.83
2022-10-24T01:36:15.560Z,971.79
2022-10-24T01:37:15.550Z,971.84
2022-10-24T01:38:15.541Z,971.83
2022-10-24T01:39:15.532Z,971.79
2022-10-24T01:40:15.524Z,971.82
2022-10-24T01:41:15.514Z,971.75
2022-10-24T01:42:15.507Z,971.72
2022-10-24T01:43:15.495Z,971.63
2022-10-24T01:44:15.512Z,971.63
2022-10-24T01:45:15.476Z,971.77
2022-10-24T01:46:15.471Z,971.73
2022-10-24T01:47:15.459Z,971.70
2022-10-24T01:48:15.454Z,971.83
2022-10-24T01:49:15.441Z,971.90
2022-10-24T01:50:15.432Z,972.00
2022-10-24T01:51:15.431Z,971.97
2022-10-24T01:52:15.431Z,971.95
2022-10-24T01:53:15.408Z,971.93
2022-10-24T01:54:15.394Z,971.90
2022-10-24T01:55:15.393Z,971.92
2022-10-24T01:56:15.379Z,971.88
2022-10-24T01:57:15.384Z,971.85
2022-10-24T01:58:15.360Z,971.79
2022-10-24T01:59:15.352Z,971.66
2022-10-24T02:00:15.360Z,971.60
2022-10-24T02:01:15.381Z,971.56
2022-10-24T02:02:15.330Z,971.62
2022-10-24T02:03:15.315Z,971.69
2022-10-24T02:04:15.305Z,971.64
2022-10-24T02:05:15.298Z,971.67
2022-10-24T02:06:15.287Z,971.63
2022-10-24T02:07:15.280Z,971.73
2022-10-24T02:08:15.268Z,971.73
2022-10-24T02:09:15.262Z,971.67
2022-10-24T02:10:15.251Z,971.62
2022-10-24T02:11:15.244Z,971.65
2022-10-24T02:12:15.234Z,971.67
2022-10-24T02:13:15.226Z,971.64
2022-10-24T02:14:15.214Z,971.66
2022-10-24T02:15:15.206Z,971.55
2022-10-24T02:16:15.213Z,971.52
2022-10-24T02:17:15.232Z,971.47
2022-10-24T02:18:15.177Z,971.42
2022-10-24T02:19:15.169Z,971.39
2022-10-24T02:20:15.158Z,971.33
2022-10-24T02:21:15.153Z,971.31
2022-10-24T02:22:15.140Z,971.31
2022-10-24T02:23:15.132Z,971.26
2022-10-24T02:24:15.121Z,971.22
2022-10-24T02:25:15.126Z,971.17
2022-10-24T02:26:15.104Z,971.09
2022-10-24T02:27:15.096Z,971.28
2022-10-24T02:28:15.084Z,971.53
2022-10-24T02:29:15.081Z,971.63
2022-10-24T02:30:15.069Z,971.63
2022-10-24T02:31:15.058Z,971.57
2022-10-24T02:32:15.067Z,971.52
2022-10-24T02:33:15.041Z,971.53
2022-10-24T02:34:15.033Z,971.49
2022-10-24T02:35:15.022Z,971.42
2022-10-24T02:36:15.011Z,971.40
2022-10-24T02:37:15.005Z,971.40
2022-10-24T02:38:14.993Z,971.53
2022-10-24T02:39:14.984Z,971.50
2022-10-24T02:40:14.973Z,971.51
2022-10-24T02:41:14.968Z,971.53
2022-10-24T02:42:14.956Z,971.54
2022-10-24T02:43:14.955Z,971.51
2022-10-24T02:44:14.938Z,971.45
2022-10-24T02:45:14.932Z,971.44
2022-10-24T02:46:14.927Z,971.45
2022-10-24T02:47:14.911Z,971.49
2022-10-24T02:48:14.929Z,971.48
2022-10-24T02:49:14.892Z,971.48
2022-10-24T02:50:14.883Z,971.46
2022-10-24T02:51:14.873Z,971.55
2022-10-24T02:52:14.864Z,971.54
2022-10-24T02:53:14.856Z,971.59
2022-10-24T02:54:14.852Z,971.63
2022-10-24T02:55:14.840Z,971.60
2022-10-24T02:56:14.826Z,971.70
2022-10-24T02:57:14.819Z,971.69
2022-10-24T02:58:14.807Z,971.71
2022-10-24T02:59:14.800Z,971.71
2022-10-24T03:00:14.789Z,971.69
2022-10-24T03:01:14.902Z,971.70
2022-10-24T03:02:14.771Z,971.73
2022-10-24T03:03:14.760Z,971.81
2022-10-24T03:04:14.778Z,971.78
2022-10-24T03:05:14.761Z,971.79
2022-10-24T03:06:14.738Z,971.80
2022-10-24T03:07:14.723Z,971.79
2022-10-24T03:08:14.732Z,971.81
2022-10-24T03:09:14.704Z,971.78
2022-10-24T03:10:14.693Z,971.79
2022-10-24T03:11:14.685Z,971.85
2022-10-24T03:12:14.685Z,971.93
2022-10-24T03:13:14.667Z,971.96
2022-10-24T03:14:14.655Z,971.94
2022-10-24T03:15:14.647Z,971.92
2022-10-24T03:16:14.637Z,971.93
2022-10-24T03:17:14.629Z,971.98
2022-10-24T03:18:14.618Z,971.90
2022-10-24T03:19:14.610Z,971.87
2022-10-24T03:20:14.616Z,971.88
2022-10-24T03:21:14.590Z,971.87
2022-10-24T03:22:14.580Z,971.86
2022-10-24T03:23:14.572Z,971.88
2022-10-24T03:24:19.471Z,971.75
2022-10-24T03:25:14.554Z,971.77
2022-10-24T03:26:14.543Z,971.80
2022-10-24T03:27:14.538Z,971.79
2022-10-24T03:28:14.524Z,971.74
2022-10-24T03:29:14.517Z,971.77
2022-10-24T03:30:14.508Z,971.81
2022-10-24T03:31:14.498Z,971.70
2022-10-24T03:32:14.599Z,971.62
2022-10-24T03:33:14.479Z,971.44
2022-10-24T03:34:14.467Z,971.40
2022-10-24T03:35:14.573Z,971.40
2022-10-24T03:36:14.470Z,971.42
2022-10-24T03:37:14.452Z,971.35
2022-10-24T03:38:14.434Z,971.33
2022-10-24T03:39:14.423Z,971.33
2022-10-24T03:40:14.412Z,971.30
2022-10-24T03:41:14.412Z,971.20
2022-10-24T03:42:14.396Z,971.02
2022-10-24T03:43:14.387Z,971.04
2022-10-24T03:44:14.376Z,971.04
2022-10-24T03:45:14.368Z,971.30
2022-10-24T03:46:14.358Z,971.50
2022-10-24T03:47:14.350Z,971.46
2022-10-24T03:48:14.345Z,971.53
2022-10-24T03:49:14.334Z,971.55
2022-10-24T03:50:14.321Z,971.55
2022-10-24T03:51:14.314Z,971.63
2022-10-24T03:52:14.321Z,971.59
2022-10-24T03:53:14.296Z,971.63
2022-10-24T03:54:14.289Z,971.65
2022-10-24T03:55:14.276Z,971.59
2022-10-24T03:56:14.265Z,971.64
2022-10-24T03:57:14.326Z,971.66
2022-10-24T03:58:14.248Z,971.62
2022-10-24T03:59:14.239Z,971.59
2022-10-24T04:00:14.229Z,971.57
2022-10-24T04:01:14.400Z,971.59
2022-10-24T04:02:14.213Z,971.63
2022-10-24T04:03:14.203Z,971.72
2022-10-24T04:04:14.195Z,971.75
2022-10-24T04:05:14.183Z,971.75
2022-10-24T04:06:14.279Z,971.74
2022-10-24T04:07:14.166Z,971.83
2022-10-24T04:08:14.170Z,971.89
2022-10-24T04:09:14.147Z,971.94
2022-10-24T04:10:14.134Z,971.98
2022-10-24T04:11:14.130Z,972.03
2022-10-24T04:12:14.115Z,972.01
2022-10-24T04:13:14.114Z,972.06
2022-10-24T04:14:14.098Z,972.04
2022-10-24T04:15:14.099Z,971.98
2022-10-24T04:16:14.177Z,971.99
2022-10-24T04:17:14.069Z,971.93
2022-10-24T04:18:14.058Z,971.91
2022-10-24T04:19:14.050Z,971.82
2022-10-24T04:20:14.040Z,971.80
2022-10-24T04:21:16.862Z,971.88
2022-10-24T04:22:14.057Z,971.80
2022-10-24T04:23:14.016Z,971.71
2022-10-24T04:24:14.029Z,971.65
2022-10-24T04:25:13.993Z,971.60
2022-10-24T04:26:13.982Z,971.56
2022-10-24T04:27:13.974Z,971.53
2022-10-24T04:28:13.963Z,971.55
2022-10-24T04:29:13.954Z,971.56
2022-10-24T04:30:16.732Z,971.52
2022-10-24T04:31:15.912Z,971.46
2022-10-24T04:32:13.926Z,971.42
2022-10-24T04:33:13.918Z,971.38
2022-10-24T04:34:13.907Z,971.41
2022-10-24T04:36:13.890Z,971.62
2022-10-24T04:37:13.877Z,971.59
2022-10-24T04:38:13.870Z,971.57
2022-10-24T04:39:13.858Z,971.46
2022-10-24T04:40:13.867Z,971.44
2022-10-24T04:41:13.838Z,971.40
2022-10-24T04:42:13.830Z,971.51
2022-10-24T04:43:13.819Z,971.59
2022-10-24T04:44:13.812Z,971.61
2022-10-24T04:45:13.800Z,971.54
2022-10-24T04:46:13.795Z,971.54
2022-10-24T04:47:13.813Z,971.55
2022-10-24T04:48:13.777Z,971.50
2022-10-24T04:49:13.773Z,971.47
2022-10-24T04:50:13.760Z,971.40
2022-10-24T04:51:17.310Z,971.17
2022-10-24T04:52:13.737Z,971.13
2022-10-24T04:53:13.724Z,971.08
2022-10-24T04:54:13.718Z,971.09
2022-10-24T04:55:13.705Z,971.19
2022-10-24T04:56:13.716Z,971.32
2022-10-24T04:57:13.686Z,971.31
2022-10-24T04:58:13.679Z,971.33
2022-10-24T04:59:13.666Z,971.27
2022-10-24T05:00:13.660Z,971.27
2022-10-24T05:01:13.717Z,971.21
2022-10-24T05:02:13.732Z,971.26
2022-10-24T05:03:13.629Z,971.26
2022-10-24T05:04:13.630Z,971.31
2022-10-24T05:05:13.610Z,971.27
2022-10-24T05:06:13.604Z,971.29
2022-10-24T05:07:13.591Z,971.22
2022-10-24T05:08:13.585Z,971.15
2022-10-24T05:09:13.656Z,971.17
2022-10-24T05:10:13.565Z,971.15
2022-10-24T05:11:13.551Z,971.15
2022-10-24T05:12:13.608Z,971.11
2022-10-24T05:13:13.533Z,971.11
2022-10-24T05:14:13.527Z,971.15
2022-10-24T05:15:13.529Z,971.21
2022-10-24T05:16:13.507Z,971.21
2022-10-24T05:17:13.495Z,971.25
2022-10-24T05:18:13.489Z,971.24
2022-10-24T05:19:13.475Z,971.22
2022-10-24T05:20:13.468Z,971.19
2022-10-24T05:21:13.456Z,971.12
2022-10-24T05:22:13.449Z,971.11
2022-10-24T05:23:13.437Z,971.20
2022-10-24T05:24:13.428Z,971.16
2022-10-24T05:25:13.419Z,971.13
2022-10-24T05:26:13.411Z,971.17
2022-10-24T05:27:13.399Z,971.26
2022-10-24T05:28:13.411Z,971.26
2022-10-24T05:29:13.487Z,971.25
2022-10-24T05:30:13.387Z,971.28
2022-10-24T05:31:13.359Z,971.28
2022-10-24T05:32:13.354Z,971.35
2022-10-24T05:33:13.342Z,971.38
2022-10-24T05:34:13.334Z,971.39
2022-10-24T05:35:13.322Z,971.43
2022-10-24T05:36:13.314Z,971.46
2022-10-24T05:37:13.302Z,971.51
2022-10-24T05:38:13.295Z,971.51
2022-10-24T05:39:13.284Z,971.53
2022-10-24T05:40:13.275Z,971.46
2022-10-24T05:41:13.466Z,971.48
2022-10-24T05:42:13.257Z,971.53
2022-10-24T05:43:13.245Z,971.56
2022-10-24T05:44:13.256Z,971.60
2022-10-24T05:45:13.226Z,971.48
2022-10-24T05:46:13.218Z,971.54
2022-10-24T05:47:13.207Z,971.54
2022-10-24T05:48:13.199Z,971.56
2022-10-24T05:49:13.190Z,971.65
2022-10-24T05:50:13.180Z,971.71
2022-10-24T05:51:13.169Z,971.78
2022-10-24T05:52:13.162Z,971.86
2022-10-24T05:53:13.153Z,971.83
2022-10-24T05:55:15.581Z,971.87
2022-10-24T05:56:13.125Z,971.89
2022-10-24T05:57:13.111Z,971.74
2022-10-24T05:58:13.102Z,971.60
2022-10-24T05:59:13.090Z,971.50
2022-10-24T06:00:13.103Z,971.42
2022-10-24T06:01:13.169Z,971.33
2022-10-24T06:02:13.341Z,971.33
2022-10-24T06:03:13.053Z,971.36
2022-10-24T06:04:14.009Z,971.30
2022-10-24T06:05:13.034Z,971.39
2022-10-24T06:06:13.040Z,971.45
2022-10-24T06:07:13.020Z,971.52
2022-10-24T06:08:13.007Z,971.54
2022-10-24T06:09:13.028Z,971.53
2022-10-24T06:10:12.986Z,971.49
2022-10-24T06:11:13.026Z,971.47
2022-10-24T06:12:12.966Z,971.45
2022-10-24T06:13:12.959Z,971.43
2022-10-24T06:14:12.948Z,971.48
2022-10-24T06:15:12.941Z,971.50
2022-10-24T06:16:12.949Z,971.49
2022-10-24T06:17:12.921Z,971.42
2022-10-24T06:18:12.910Z,971.40
2022-10-24T06:19:12.903Z,971.41
2022-10-24T06:20:12.889Z,971.47
2022-10-24T06:21:12.883Z,971.47
2022-10-24T06:22:12.870Z,971.46
2022-10-24T06:23:12.863Z,971.46
2022-10-24T06:24:12.852Z,971.47
2022-10-24T06:25:12.844Z,971.49
2022-10-24T06:26:12.833Z,971.46
2022-10-24T06:27:12.825Z,971.41
2022-10-24T06:28:12.815Z,971.49
2022-10-24T06:29:12.807Z,971.49
2022-10-24T06:30:12.793Z,971.49
2022-10-24T06:31:12.787Z,971.48
2022-10-24T06:32:12.792Z,971.48
2022-10-24T06:33:12.772Z,971.55
2022-10-24T06:34:12.783Z,971.61
2022-10-24T06:35:12.752Z,971.57
2022-10-24T06:36:12.738Z,971.55
2022-10-24T06:37:12.728Z,971.58
2022-10-24T06:38:12.718Z,971.56
2022-10-24T06:39:12.710Z,971.64
2022-10-24T06:40:12.703Z,971.70
2022-10-24T06:41:12.699Z,971.68
2022-10-24T06:42:12.680Z,971.71
2022-10-24T06:43:12.689Z,971.67
2022-10-24T06:44:12.661Z,971.70
2022-10-24T06:45:12.656Z,971.68
2022-10-24T06:46:12.642Z,971.66
2022-10-24T06:47:12.633Z,971.66
2022-10-24T06:48:12.654Z,971.61
2022-10-24T06:49:12.616Z,971.64
2022-10-24T06:50:12.602Z,971.65
2022-10-24T06:51:12.594Z,971.73
2022-10-24T06:52:12.582Z,971.78
2022-10-24T06:53:12.612Z,971.80
2022-10-24T06:54:12.565Z,971.79
2022-10-24T06:55:12.558Z,971.76
2022-10-24T06:56:12.545Z,971.74
2022-10-24T06:57:12.538Z,971.70
2022-10-24T06:58:12.526Z,971.74
2022-10-24T06:59:12.516Z,971.74
2022-10-24T07:00:12.518Z,971.75
2022-10-24T07:01:12.659Z,971.69
2022-10-24T07:02:12.622Z,971.68
2022-10-24T07:03:12.480Z,971.66
2022-10-24T07:04:12.520Z,971.62
2022-10-24T07:05:12.462Z,971.60
2022-10-24T07:06:12.545Z,971.60
2022-10-24T07:07:12.441Z,971.63
2022-10-24T07:08:12.430Z,971.63
2022-10-24T07:09:15.151Z,971.58
2022-10-24T07:10:12.410Z,971.59
2022-10-24T07:11:12.403Z,971.61
2022-10-24T07:12:12.456Z,971.60
2022-10-24T07:13:12.384Z,971.55
2022-10-24T07:14:12.376Z,971.56
2022-10-24T07:15:12.384Z,971.55
2022-10-24T07:16:12.353Z,971.64
2022-10-24T07:17:12.345Z,971.65
2022-10-24T07:18:12.333Z,971.67
2022-10-24T07:19:12.325Z,971.71
2022-10-24T07:20:12.333Z,971.71
2022-10-24T07:21:12.307Z,971.66
2022-10-24T07:22:12.300Z,971.65
2022-10-24T07:23:12.288Z,971.57
2022-10-24T07:24:12.277Z,971.61
2022-10-24T07:25:12.267Z,971.48
2022-10-24T07:26:12.256Z,971.46
2022-10-24T07:27:12.248Z,971.42
2022-10-24T07:28:12.237Z,971.43
2022-10-24T07:29:12.231Z,971.43
2022-10-24T07:30:12.221Z,971.52
2022-10-24T07:31:12.210Z,971.55
2022-10-24T07:32:12.197Z,971.59
2022-10-24T07:33:12.192Z,971.68
2022-10-24T07:34:12.179Z,971.78
2022-10-24T07:35:12.171Z,971.86
2022-10-24T07:36:12.187Z,971.93
2022-10-24T07:37:12.161Z,972.02
2022-10-24T07:38:15.289Z,972.05
2022-10-24T07:39:12.131Z,972.13
2022-10-24T07:40:12.120Z,972.18
2022-10-24T07:41:12.113Z,972.18
2022-10-24T07:42:12.101Z,972.23
2022-10-24T07:43:12.109Z,972.20
2022-10-24T07:44:12.082Z,972.26
2022-10-24T07:45:12.075Z,972.23
2022-10-24T07:46:12.064Z,972.24
2022-10-24T07:47:12.062Z,972.26
2022-10-24T07:48:12.046Z,972.31
2022-10-24T07:49:12.035Z,972.44
2022-10-24T07:50:12.026Z,972.47
2022-10-24T07:51:12.017Z,972.46
2022-10-24T07:52:12.025Z,972.47
2022-10-24T07:53:12.011Z,972.56
2022-10-24T07:54:12.072Z,972.68
2022-10-24T07:55:11.978Z,972.65
2022-10-24T07:56:11.965Z,972.71
2022-10-24T07:57:11.959Z,972.77
2022-10-24T07:58:11.949Z,972.84
2022-10-24T07:59:29.772Z,972.85
2022-10-24T08:00:11.928Z,972.92
2022-10-24T08:01:11.966Z,972.93
2022-10-24T08:02:11.908Z,973.00
2022-10-24T08:03:11.900Z,973.09
2022-10-24T08:04:11.891Z,972.96
2022-10-24T08:05:11.881Z,972.84
2022-10-24T08:06:11.869Z,972.82
2022-10-24T08:07:11.862Z,972.95
2022-10-24T08:08:27.504Z,973.07
2022-10-24T08:09:11.859Z,973.19
2022-10-24T08:10:11.831Z,973.19
2022-10-24T08:11:11.822Z,973.16
2022-10-24T08:12:11.816Z,973.00
2022-10-24T08:13:13.609Z,972.93
2022-10-24T08:14:11.794Z,972.99
2022-10-24T08:15:11.785Z,972.96
2022-10-24T08:16:11.772Z,972.96
2022-10-24T08:17:11.765Z,972.96
2022-10-24T08:18:11.754Z,972.88
2022-10-24T08:19:11.745Z,972.82
2022-10-24T08:20:11.738Z,972.79
2022-10-24T08:21:11.727Z,972.80
2022-10-24T08:22:11.716Z,972.75
2022-10-24T08:23:11.708Z,972.79
2022-10-24T08:24:11.717Z,972.85
2022-10-24T08:25:11.689Z,973.00
2022-10-24T08:26:11.677Z,972.98
2022-10-24T08:27:11.670Z,973.04
2022-10-24T08:28:11.659Z,973.10
2022-10-24T08:29:11.749Z,973.19
2022-10-24T08:30:11.644Z,973.31
2022-10-24T08:31:11.633Z,973.31
2022-10-24T08:32:11.620Z,973.29
2022-10-24T08:33:14.727Z,973.31
2022-10-24T08:34:11.602Z,973.27
2022-10-24T08:35:11.597Z,973.33
2022-10-24T08:36:11.582Z,973.26
2022-10-24T08:37:11.591Z,973.25
2022-10-24T08:38:11.564Z,973.30
2022-10-24T08:39:11.555Z,973.25
2022-10-24T08:40:11.563Z,973.25
2022-10-24T08:41:11.538Z,973.31
2022-10-24T08:43:11.518Z,973.42
2022-10-24T08:44:11.508Z,973.37
2022-10-24T08:45:11.495Z,973.29
2022-10-24T08:46:11.490Z,973.31
2022-10-24T08:47:11.478Z,973.26
2022-10-24T08:48:11.471Z,973.22
2022-10-24T08:49:11.459Z,973.22
2022-10-24T08:50:11.451Z,973.23
2022-10-24T08:51:11.438Z,973.26
2022-10-24T08:52:11.432Z,973.26
2022-10-24T08:53:11.421Z,973.24
2022-10-24T08:54:11.414Z,973.25
2022-10-24T08:55:25.241Z,973.19
2022-10-24T08:56:11.414Z,973.19
2022-10-24T08:57:11.385Z,973.15
2022-10-24T08:58:11.400Z,973.15
2022-10-24T08:59:11.365Z,973.18
2022-10-24T09:00:11.387Z,973.17
2022-10-24T09:01:11.489Z,973.10
2022-10-24T09:02:13.637Z,973.01
2022-10-24T09:03:11.326Z,973.04
2022-10-24T09:04:11.319Z,973.09
2022-10-24T09:05:11.308Z,972.99
2022-10-24T09:06:11.301Z,973.02
2022-10-24T09:07:11.322Z,972.88
2022-10-24T09:08:11.280Z,972.93
2022-10-24T09:09:11.271Z,972.93
2022-10-24T09:10:11.262Z,972.92
2022-10-24T09:11:11.251Z,972.95
2022-10-24T09:12:11.262Z,972.99
2022-10-24T09:13:11.232Z,973.01
2022-10-24T09:14:11.224Z,972.99
2022-10-24T09:15:11.210Z,972.94
2022-10-24T09:16:11.205Z,972.84
2022-10-24T09:17:11.260Z,972.78
2022-10-24T09:18:11.191Z,972.63
2022-10-24T09:19:11.174Z,972.59
2022-10-24T09:20:11.168Z,972.65
2022-10-24T09:21:11.158Z,972.70
2022-10-24T09:22:11.153Z,972.74
2022-10-24T09:23:11.136Z,972.71
2022-10-24T09:24:11.129Z,972.73
2022-10-24T09:25:11.118Z,972.76
2022-10-24T09:26:11.110Z,972.81
2022-10-24T09:27:11.197Z,972.78
2022-10-24T09:28:11.109Z,972.72
2022-10-24T09:29:11.078Z,972.70
2022-10-24T09:30:11.072Z,972.75
2022-10-24T09:31:11.060Z,972.81
2022-10-24T09:32:11.053Z,972.87
2022-10-24T09:33:11.041Z,972.83
2022-10-24T09:34:11.136Z,972.81
2022-10-24T09:35:11.022Z,972.83
2022-10-24T09:36:11.014Z,972.92
2022-10-24T09:37:11.048Z,973.09
2022-10-24T09:38:10.996Z,973.18
2022-10-24T09:39:10.985Z,973.22
2022-10-24T09:40:10.977Z,973.30
2022-10-24T09:41:10.966Z,973.33
2022-10-24T09:42:10.960Z,973.39
2022-10-24T09:43:10.945Z,973.39
2022-10-24T09:44:10.957Z,973.40
2022-10-24T09:45:10.928Z,973.42
2022-10-24T09:46:10.920Z,973.44
2022-10-24T09:47:10.957Z,973.44
2022-10-24T09:48:10.902Z,973.43
2022-10-24T09:49:10.889Z,973.45
2022-10-24T09:50:10.881Z,973.47
2022-10-24T09:51:10.869Z,973.52
2022-10-24T09:52:10.862Z,973.61
2022-10-24T09:53:10.849Z,973.71
2022-10-24T09:54:10.843Z,973.78
2022-10-24T09:55:10.831Z,973.99
2022-10-24T09:56:10.823Z,974.22
2022-10-24T09:57:10.906Z,974.35
2022-10-24T09:58:10.806Z,974.40
2022-10-24T09:59:10.791Z,974.46
2022-10-24T10:00:10.805Z,974.50
2022-10-24T10:01:10.922Z,974.55
2022-10-24T10:02:10.971Z,974.56
2022-10-24T10:03:10.754Z,974.60
2022-10-24T10:04:13.068Z,974.61
2022-10-24T10:05:10.736Z,974.60
2022-10-24T10:06:10.728Z,974.63
2022-10-24T10:07:10.728Z,974.68
2022-10-24T10:08:10.711Z,974.70
2022-10-24T10:09:10.703Z,974.68
2022-10-24T10:10:10.691Z,974.73
2022-10-24T10:11:10.684Z,974.72
2022-10-24T10:12:10.670Z,974.70
2022-10-24T10:13:10.662Z,974.76
2022-10-24T10:14:10.652Z,974.76
2022-10-24T10:15:10.639Z,974.84
2022-10-24T10:16:13.925Z,974.84
2022-10-24T10:17:10.621Z,974.80
2022-10-24T10:18:10.616Z,974.80
2022-10-24T10:19:10.601Z,974.84
2022-10-24T10:20:10.592Z,974.81
2022-10-24T10:21:10.583Z,974.74
2022-10-24T10:22:10.575Z,974.69
2022-10-24T10:23:10.563Z,974.65
2022-10-24T10:24:10.552Z,974.72
2022-10-24T10:25:10.588Z,974.74
2022-10-24T10:26:10.534Z,974.77
2022-10-24T10:27:10.527Z,974.70
2022-10-24T10:28:10.517Z,974.67
2022-10-24T10:29:10.508Z,974.60
2022-10-24T10:30:10.495Z,974.52
2022-10-24T10:31:10.488Z,974.42
2022-10-24T10:32:10.565Z,974.35
2022-10-24T10:33:10.469Z,974.34
2022-10-24T10:34:10.459Z,974.35
2022-10-24T10:35:10.454Z,974.31
2022-10-24T10:36:10.440Z,974.18
2022-10-24T10:37:10.432Z,974.10
2022-10-24T10:38:10.421Z,974.06
2022-10-24T10:39:10.411Z,974.01
2022-10-24T10:40:10.401Z,973.93
2022-10-24T10:41:10.393Z,973.87
2022-10-24T10:42:10.383Z,973.89
2022-10-24T10:43:10.377Z,973.83
2022-10-24T10:44:10.362Z,973.83
2022-10-24T10:45:10.358Z,973.84
2022-10-24T10:46:10.344Z,973.75
2022-10-24T10:47:10.335Z,973.68
2022-10-24T10:48:10.355Z,973.61
2022-10-24T10:49:10.319Z,973.66
2022-10-24T10:50:10.364Z,973.63
2022-10-24T10:51:10.299Z,973.56
2022-10-24T10:52:10.287Z,973.51
2022-10-24T10:53:10.279Z,973.45
2022-10-24T10:54:10.269Z,973.41
2022-10-24T10:55:10.261Z,973.35
2022-10-24T10:56:10.250Z,973.24
2022-10-24T10:57:10.242Z,973.24
2022-10-24T10:58:13.102Z,973.29
2022-10-24T10:59:10.224Z,973.19
2022-10-24T11:00:10.213Z,973.16
2022-10-24T11:01:10.435Z,973.18
2022-10-24T11:02:10.309Z,973.17
2022-10-24T11:03:10.186Z,973.19
2022-10-24T11:04:10.195Z,973.30
2022-10-24T11:05:10.168Z,973.47
2022-10-24T11:06:10.158Z,973.46
2022-10-24T11:07:10.149Z,973.53
2022-10-24T11:08:10.139Z,973.61
2022-10-24T11:09:10.132Z,973.63
2022-10-24T11:10:10.121Z,973.70
2022-10-24T11:11:10.113Z,973.68
2022-10-24T11:12:10.101Z,973.67
2022-10-24T11:13:10.094Z,973.77
2022-10-24T11:14:10.083Z,973.81
2022-10-24T11:15:10.145Z,973.73
2022-10-24T11:16:10.067Z,973.68
2022-10-24T11:17:11.161Z,973.70
2022-10-24T11:18:10.050Z,973.65
2022-10-24T11:19:10.039Z,973.66
2022-10-24T11:20:10.047Z,973.61
2022-10-24T11:21:10.024Z,973.64
2022-10-24T11:22:10.010Z,973.67
2022-10-24T11:23:10.207Z,973.61
2022-10-24T11:24:12.707Z,973.56
2022-10-24T11:25:09.986Z,973.48
2022-10-24T11:26:09.974Z,973.48
2022-10-24T11:27:09.966Z,973.43
2022-10-24T11:28:09.968Z,973.30
2022-10-24T11:29:09.947Z,973.18
2022-10-24T11:30:09.939Z,973.22
2022-10-24T11:31:09.929Z,973.22
2022-10-24T11:32:09.920Z,973.23
2022-10-24T11:33:09.911Z,973.33
2022-10-24T11:34:09.909Z,973.31
2022-10-24T11:35:09.896Z,973.24
2022-10-24T11:36:09.899Z,973.16
2022-10-24T11:37:09.874Z,973.17
2022-10-24T11:38:09.863Z,973.25
2022-10-24T11:39:09.855Z,973.35
2022-10-24T11:40:09.860Z,973.34
2022-10-24T11:41:09.836Z,973.27
2022-10-24T11:42:09.825Z,973.29
2022-10-24T11:43:09.820Z,973.31
2022-10-24T11:44:09.807Z,973.31
2022-10-24T11:45:09.802Z,973.33
2022-10-24T11:46:09.790Z,973.33
2022-10-24T11:47:09.781Z,973.31
2022-10-24T11:48:09.771Z,973.22
2022-10-24T11:49:09.768Z,973.14
2022-10-24T11:50:09.751Z,973.00
2022-10-24T11:51:09.744Z,972.87
2022-10-24T11:52:09.752Z,972.92
2022-10-24T11:53:09.727Z,973.04
2022-10-24T11:54:09.714Z,973.13
2022-10-24T11:55:09.708Z,973.10
2022-10-24T11:56:09.695Z,973.03
2022-10-24T11:57:09.740Z,973.14
2022-10-24T11:58:09.678Z,973.27
2022-10-24T11:59:09.670Z,973.44
2022-10-24T12:00:09.660Z,973.49
2022-10-24T12:01:09.710Z,973.39
2022-10-24T12:02:09.643Z,973.32
2022-10-24T12:03:09.634Z,973.34
2022-10-24T12:04:09.624Z,973.28
2022-10-24T12:05:09.615Z,973.26
2022-10-24T12:06:09.606Z,973.31
2022-10-24T12:07:09.596Z,973.32
2022-10-24T12:08:09.603Z,973.34
2022-10-24T12:09:09.580Z,973.33
2022-10-24T12:10:09.570Z,973.34
2022-10-24T12:11:09.573Z,973.31
2022-10-24T12:12:09.549Z,973.30
2022-10-24T12:13:09.542Z,973.27
2022-10-24T12:14:09.534Z,973.28
2022-10-24T12:15:09.523Z,973.28
2022-10-24T12:16:09.514Z,973.30
2022-10-24T12:17:09.511Z,973.35
2022-10-24T12:18:09.492Z,973.31
2022-10-24T12:19:09.485Z,973.28
2022-10-24T12:20:09.588Z,973.24
2022-10-24T12:21:09.467Z,973.28
2022-10-24T12:22:09.456Z,973.19
2022-10-24T12:23:09.447Z,973.20
2022-10-24T12:24:09.471Z,973.20
2022-10-24T12:25:09.432Z,973.29
2022-10-24T12:26:09.419Z,973.27
2022-10-24T12:27:09.413Z,973.30
2022-10-24T12:28:09.401Z,973.36
2022-10-24T12:29:09.396Z,973.31
2022-10-24T12:30:09.511Z,973.19
2022-10-24T12:31:09.374Z,973.08